createdAt,value
2023-05-21T00:02:21.570Z,64.24
2023-05-21T00:04:49.734Z,64.13
2023-05-21T00:07:18.982Z,64.12
2023-05-21T00:09:47.287Z,64.11
2023-05-21T00:12:15.470Z,64.15
2023-05-21T00:14:43.582Z,64.19
2023-05-21T00:17:11.741Z,64.20
2023-05-21T00:19:40.533Z,64.22
2023-05-21T00:22:09.502Z,64.23
2023-05-21T00:24:37.683Z,64.25
2023-05-21T00:27:05.994Z,64.40
2023-05-21T00:29:33.951Z,64.40
2023-05-21T00:32:02.107Z,64.50
2023-05-21T00:34:30.341Z,64.61
2023-05-21T00:36:58.601Z,64.64
2023-05-21T00:39:26.742Z,64.66
2023-05-21T00:41:57.161Z,64.83
2023-05-21T00:44:25.672Z,64.78
2023-05-21T00:46:53.933Z,64.84
2023-05-21T00:49:24.701Z,64.71
2023-05-21T00:51:53.164Z,64.70
2023-05-21T00:54:22.084Z,64.54
2023-05-21T00:56:50.842Z,64.69
2023-05-21T00:59:19.461Z,64.69
2023-05-21T01:02:48.043Z,64.81
2023-05-21T01:06:40.027Z,64.79
2023-05-21T01:09:26.666Z,65.19
2023-05-21T01:11:56.522Z,65.34
2023-05-21T01:14:25.574Z,65.31
2023-05-21T01:16:53.920Z,65.24
2023-05-21T01:19:44.562Z,65.07
2023-05-21T01:22:14.413Z,65.13
2023-05-21T01:24:47.778Z,65.05
2023-05-21T01:27:16.206Z,65.00
2023-05-21T01:30:44.853Z,64.97
2023-05-21T01:33:41.945Z,64.93
2023-05-21T01:36:16.080Z,64.75
2023-05-21T01:39:47.724Z,64.88
2023-05-21T01:43:13.968Z,64.81
2023-05-21T01:45:44.222Z,64.80
2023-05-21T01:48:13.719Z,64.77
2023-05-21T01:50:42.615Z,64.78
2023-05-21T01:53:10.845Z,64.59
2023-05-21T01:55:42.109Z,64.54
2023-05-21T01:58:10.645Z,64.47
2023-05-21T02:01:39.528Z,64.58
2023-05-21T02:05:49.522Z,64.77
2023-05-21T02:08:38.700Z,64.57
2023-05-21T02:12:06.859Z,64.54
2023-05-21T02:14:35.099Z,64.63
2023-05-21T02:17:03.227Z,64.70
2023-05-21T02:19:39.814Z,64.51
2023-05-21T02:22:07.980Z,64.42
2023-05-21T02:24:36.458Z,64.28
2023-05-21T02:27:06.430Z,64.28
2023-05-21T02:29:34.612Z,64.17
2023-05-21T02:32:03.124Z,64.03
2023-05-21T02:34:32.380Z,63.94
2023-05-21T02:37:01.828Z,63.89
2023-05-21T02:40:30.581Z,63.91
2023-05-21T02:43:07.466Z,63.82
2023-05-21T02:45:36.107Z,63.77
2023-05-21T02:48:04.406Z,63.70
2023-05-21T02:51:34.129Z,63.80
2023-05-21T02:54:23.163Z,63.85
2023-05-21T02:56:51.642Z,63.88
2023-05-21T02:59:19.650Z,63.93
2023-05-21T03:02:28.388Z,63.88
2023-05-21T03:04:56.543Z,63.91
2023-05-21T03:07:24.844Z,63.98
2023-05-21T03:09:52.969Z,64.02
2023-05-21T03:12:21.057Z,63.93
2023-05-21T03:14:51.460Z,63.96
2023-05-21T03:17:22.354Z,64.03
2023-05-21T03:19:50.507Z,63.92
2023-05-21T03:22:20.201Z,63.94
2023-05-21T03:24:48.776Z,63.97
2023-05-21T03:27:17.049Z,63.79
2023-05-21T03:29:46.104Z,63.74
2023-05-21T03:32:14.672Z,63.83
2023-05-21T03:34:43.253Z,63.92
2023-05-21T03:37:11.288Z,63.94
2023-05-21T03:39:39.562Z,63.92
2023-05-21T03:42:07.932Z,64.04
2023-05-21T03:44:43.157Z,63.90
2023-05-21T03:47:29.825Z,64.09
2023-05-21T03:49:58.292Z,63.94
2023-05-21T03:53:27.038Z,63.99
2023-05-21T03:56:32.157Z,63.94
2023-05-21T03:59:00.169Z,64.05
2023-05-21T04:01:28.653Z,63.97
2023-05-21T04:03:57.296Z,64.12
2023-05-21T04:06:25.580Z,64.12
2023-05-21T04:08:53.800Z,64.12
2023-05-21T04:11:22.656Z,64.08
2023-05-21T04:13:51.739Z,64.05
2023-05-21T04:16:19.804Z,63.98
2023-05-21T04:18:48.416Z,64.02
2023-05-21T04:21:17.013Z,64.00
2023-05-21T04:24:46.056Z,63.93
2023-05-21T04:27:39.859Z,63.69
2023-05-21T04:30:08.797Z,63.60
2023-05-21T04:32:38.565Z,63.53
2023-05-21T04:35:08.363Z,63.33
2023-05-21T04:37:36.452Z,63.35
2023-05-21T04:40:04.960Z,63.15
2023-05-21T04:43:33.714Z,62.93
2023-05-21T04:47:02.309Z,62.59
2023-05-21T04:49:30.973Z,61.94
2023-05-21T04:51:59.282Z,61.45
2023-05-21T04:54:27.766Z,61.04
2023-05-21T04:56:56.068Z,60.66
2023-05-21T04:59:24.334Z,60.36
2023-05-21T05:02:32.293Z,60.28
2023-05-21T05:05:01.644Z,60.23
2023-05-21T05:08:30.140Z,60.36
2023-05-21T05:11:38.573Z,59.96
2023-05-21T05:15:07.294Z,59.63
2023-05-21T05:17:39.922Z,59.57
2023-05-21T05:20:10.060Z,59.45
2023-05-21T05:23:02.738Z,58.61
2023-05-21T05:25:30.940Z,58.19
2023-05-21T05:27:59.335Z,57.77
2023-05-21T05:30:27.588Z,57.40
2023-05-21T05:32:57.392Z,56.72
2023-05-21T05:35:25.950Z,56.51
2023-05-21T05:37:53.934Z,56.40
2023-05-21T05:40:22.052Z,56.27
2023-05-21T05:42:52.682Z,55.84
2023-05-21T05:45:21.197Z,54.84
2023-05-21T05:47:49.278Z,54.77
2023-05-21T05:50:17.353Z,54.48
2023-05-21T05:52:45.446Z,54.22
2023-05-21T05:55:13.587Z,54.20
2023-05-21T05:57:43.727Z,54.10
2023-05-21T06:00:15.062Z,54.00
2023-05-21T06:02:45.178Z,52.77
2023-05-21T06:05:33.228Z,52.62
2023-05-21T06:08:01.600Z,51.75
2023-05-21T06:10:29.632Z,51.71
2023-05-21T06:12:57.721Z,51.39
2023-05-21T06:15:25.933Z,51.80
2023-05-21T06:17:54.135Z,51.71
2023-05-21T06:20:22.341Z,51.20
2023-05-21T06:22:50.305Z,51.21
2023-05-21T06:25:23.265Z,50.47
2023-05-21T06:27:51.696Z,49.27
2023-05-21T06:30:22.585Z,49.46
2023-05-21T06:32:50.643Z,49.32
2023-05-21T06:35:58.875Z,49.50
2023-05-21T06:38:26.985Z,49.38
2023-05-21T06:40:55.255Z,49.14
2023-05-21T06:43:42.709Z,48.98
2023-05-21T06:46:31.144Z,48.40
2023-05-21T06:49:01.117Z,47.94
2023-05-21T06:51:29.001Z,47.84
2023-05-21T06:53:57.252Z,47.62
2023-05-21T06:56:26.626Z,47.33
2023-05-21T06:58:56.159Z,47.72
2023-05-21T07:01:24.537Z,47.62
2023-05-21T07:03:53.123Z,47.13
2023-05-21T07:06:41.860Z,46.89
2023-05-21T07:09:10.411Z,46.62
2023-05-21T07:11:39.045Z,46.66
2023-05-21T07:14:08.945Z,46.32
2023-05-21T07:17:37.993Z,45.92
2023-05-21T07:21:10.076Z,46.34
2023-05-21T07:24:00.677Z,44.64
2023-05-21T07:27:24.256Z,44.49
2023-05-21T07:29:56.266Z,44.45
2023-05-21T07:32:24.677Z,44.40
2023-05-21T07:34:54.351Z,44.24
2023-05-21T07:37:23.112Z,44.35
2023-05-21T07:39:51.293Z,43.64
2023-05-21T07:42:19.407Z,42.69
2023-05-21T07:44:47.477Z,42.21
2023-05-21T07:48:15.981Z,41.62
2023-05-21T07:50:53.415Z,41.17
2023-05-21T07:53:21.843Z,41.04
2023-05-21T07:55:51.460Z,40.58
2023-05-21T07:59:43.209Z,39.41
2023-05-21T08:02:12.480Z,39.21
2023-05-21T08:04:41.489Z,39.11
2023-05-21T08:08:09.920Z,38.67
2023-05-21T08:11:00.594Z,37.72
2023-05-21T08:13:29.036Z,38.24
2023-05-21T08:15:57.706Z,37.70
2023-05-21T08:18:45.789Z,37.03
2023-05-21T08:21:13.930Z,36.97
2023-05-21T08:23:42.088Z,37.36
2023-05-21T08:26:10.791Z,37.30
2023-05-21T08:28:48.285Z,37.62
2023-05-21T08:31:18.752Z,36.67
2023-05-21T08:33:51.673Z,37.06
2023-05-21T08:36:21.410Z,37.29
2023-05-21T08:38:54.963Z,36.97
2023-05-21T08:41:28.908Z,36.54
2023-05-21T08:43:59.834Z,34.91
2023-05-21T08:46:34.616Z,35.02
2023-05-21T08:49:03.211Z,35.12
2023-05-21T08:51:31.544Z,35.10
2023-05-21T08:54:01.815Z,34.79
2023-05-21T08:56:31.691Z,33.86
2023-05-21T09:00:00.553Z,34.08
2023-05-21T09:02:36.496Z,33.79
2023-05-21T09:05:05.726Z,33.52
2023-05-21T09:07:56.714Z,33.19
2023-05-21T09:11:51.143Z,33.87
2023-05-21T09:14:47.655Z,33.58
2023-05-21T09:17:20.277Z,33.58
2023-05-21T09:20:12.351Z,32.86
2023-05-21T09:22:47.257Z,32.49
2023-05-21T09:25:17.102Z,32.88
2023-05-21T09:27:45.256Z,32.71
2023-05-21T09:30:14.677Z,33.29
2023-05-21T09:32:43.888Z,32.78
2023-05-21T09:35:12.669Z,32.52
2023-05-21T09:37:45.724Z,32.42
2023-05-21T09:40:15.579Z,32.34
2023-05-21T09:42:51.762Z,32.38
2023-05-21T09:45:26.283Z,31.88
2023-05-21T09:47:56.425Z,31.57
2023-05-21T09:50:29.585Z,30.97
2023-05-21T09:52:58.408Z,31.31
2023-05-21T09:55:26.766Z,31.49
2023-05-21T09:57:55.031Z,31.38
2023-05-21T10:00:43.104Z,31.33
2023-05-21T10:03:14.544Z,31.19
2023-05-21T10:05:42.769Z,30.75
2023-05-21T10:08:14.404Z,30.32
2023-05-21T10:10:43.167Z,29.84
2023-05-21T10:13:12.960Z,30.05
2023-05-21T10:15:44.219Z,30.18
2023-05-21T10:18:13.771Z,29.93
2023-05-21T10:20:43.108Z,30.25
2023-05-21T10:23:13.072Z,29.92
2023-05-21T10:25:42.005Z,30.32
2023-05-21T10:28:10.750Z,30.38
2023-05-21T10:31:00.149Z,29.99
2023-05-21T10:33:29.400Z,30.03
2023-05-21T10:35:58.799Z,29.18
2023-05-21T10:38:27.977Z,29.01
2023-05-21T10:40:56.650Z,29.10
2023-05-21T10:44:06.360Z,28.89
2023-05-21T10:46:57.879Z,28.74
2023-05-21T10:50:01.533Z,27.80
2023-05-21T10:52:57.152Z,26.20
2023-05-21T10:55:51.398Z,26.83
2023-05-21T10:58:55.440Z,26.88
2023-05-21T11:01:23.688Z,26.90
2023-05-21T11:03:52.086Z,27.50
2023-05-21T11:06:27.465Z,28.04
2023-05-21T11:08:55.968Z,29.07
2023-05-21T11:11:44.142Z,28.04
2023-05-21T11:14:32.777Z,27.84
2023-05-21T11:17:02.897Z,28.34
2023-05-21T11:19:47.408Z,27.95
2023-05-21T11:22:24.957Z,27.15
2023-05-21T11:24:53.993Z,27.02
2023-05-21T11:27:54.475Z,26.79
2023-05-21T11:30:22.549Z,27.35
2023-05-21T11:34:09.639Z,27.67
2023-05-21T11:36:39.048Z,27.02
2023-05-21T11:39:13.415Z,27.33
2023-05-21T11:41:59.498Z,26.69
2023-05-21T11:44:40.024Z,25.45
2023-05-21T11:47:16.609Z,25.33
2023-05-21T11:49:46.028Z,25.17
2023-05-21T11:52:15.783Z,25.58
2023-05-21T11:54:50.736Z,26.40
2023-05-21T11:57:19.627Z,26.83
2023-05-21T11:59:53.779Z,26.27
2023-05-21T12:02:22.934Z,26.63
2023-05-21T12:04:51.669Z,26.78
2023-05-21T12:07:20.366Z,27.33
2023-05-21T12:09:50.250Z,28.16
2023-05-21T12:12:21.588Z,28.81
2023-05-21T12:14:51.426Z,28.65
2023-05-21T12:17:20.019Z,28.67
2023-05-21T12:19:49.769Z,28.63
2023-05-21T12:22:17.986Z,28.67
2023-05-21T12:24:46.545Z,28.57
2023-05-21T12:27:16.991Z,28.77
2023-05-21T12:29:45.642Z,29.00
2023-05-21T12:32:15.006Z,28.65
2023-05-21T12:34:47.216Z,29.08
2023-05-21T12:37:16.229Z,29.37
2023-05-21T12:39:48.590Z,29.21
2023-05-21T12:42:16.838Z,29.03
2023-05-21T12:44:47.093Z,29.04
2023-05-21T12:47:15.273Z,28.47
2023-05-21T12:49:44.980Z,28.35
2023-05-21T12:52:15.035Z,28.64
2023-05-21T12:54:49.330Z,29.02
2023-05-21T12:57:19.495Z,29.28
2023-05-21T13:00:00.325Z,29.62
2023-05-21T13:02:39.013Z,29.67
2023-05-21T13:06:07.560Z,29.35
2023-05-21T13:08:38.198Z,29.30
2023-05-21T13:11:06.197Z,29.23
2023-05-21T13:13:34.761Z,29.21
2023-05-21T13:16:02.870Z,29.14
2023-05-21T13:18:30.852Z,28.43
2023-05-21T13:20:59.099Z,28.37
2023-05-21T13:23:26.986Z,28.93
2023-05-21T13:25:55.202Z,29.23
2023-05-21T13:28:24.686Z,28.94
2023-05-21T13:30:55.058Z,28.83
2023-05-21T13:33:23.199Z,28.74
2023-05-21T13:36:51.675Z,29.38
2023-05-21T13:39:26.730Z,29.47
2023-05-21T13:41:54.804Z,28.97
2023-05-21T13:44:42.758Z,29.14
2023-05-21T13:47:12.129Z,29.47
2023-05-21T13:49:40.322Z,29.60
2023-05-21T13:52:09.728Z,30.01
2023-05-21T13:54:57.784Z,30.42
2023-05-21T13:57:27.030Z,30.48
2023-05-21T13:59:55.648Z,30.38
2023-05-21T14:02:23.659Z,30.51
2023-05-21T14:04:51.852Z,30.68
2023-05-21T14:07:19.915Z,30.69
2023-05-21T14:09:47.961Z,30.85
2023-05-21T14:12:17.056Z,31.28
2023-05-21T14:14:46.114Z,31.43
2023-05-21T14:17:14.142Z,31.11
2023-05-21T14:19:42.080Z,30.69
2023-05-21T14:22:09.994Z,30.47
2023-05-21T14:24:38.072Z,30.81
2023-05-21T14:27:06.127Z,30.76
2023-05-21T14:29:34.235Z,30.89
2023-05-21T14:32:02.435Z,31.12
2023-05-21T14:34:30.793Z,31.54
2023-05-21T14:36:59.236Z,31.66
2023-05-21T14:39:27.490Z,31.54
2023-05-21T14:41:55.651Z,31.60
2023-05-21T14:44:23.804Z,31.72
2023-05-21T14:46:51.974Z,32.00
2023-05-21T14:49:20.139Z,31.76
2023-05-21T14:51:48.213Z,31.26
2023-05-21T14:54:16.024Z,31.31
2023-05-21T14:56:44.038Z,31.15
2023-05-21T14:59:12.996Z,31.36
2023-05-21T15:01:41.299Z,31.95
2023-05-21T15:04:09.669Z,32.15
2023-05-21T15:06:38.052Z,32.11
2023-05-21T15:09:06.026Z,32.22
2023-05-21T15:11:34.517Z,32.44
2023-05-21T15:14:02.531Z,32.54
2023-05-21T15:16:31.405Z,32.94
2023-05-21T15:18:59.509Z,33.18
2023-05-21T15:21:28.213Z,33.07
2023-05-21T15:23:56.403Z,32.91
2023-05-21T15:26:26.435Z,32.95
2023-05-21T15:28:54.414Z,33.34
2023-05-21T15:31:22.580Z,33.60
2023-05-21T15:33:50.783Z,33.57
2023-05-21T15:36:59.972Z,33.99
2023-05-21T15:39:28.695Z,34.14
2023-05-21T15:41:56.769Z,33.78
2023-05-21T15:44:25.640Z,33.60
2023-05-21T15:46:54.944Z,33.77
2023-05-21T15:49:23.177Z,33.56
2023-05-21T15:51:51.678Z,33.63
2023-05-21T15:54:19.700Z,33.64
2023-05-21T15:56:47.787Z,33.93
2023-05-21T15:59:16.410Z,34.03
2023-05-21T16:01:45.067Z,34.10
2023-05-21T16:04:13.610Z,33.97
2023-05-21T16:06:41.711Z,34.20
2023-05-21T16:09:09.932Z,34.37
2023-05-21T16:11:38.018Z,34.93
2023-05-21T16:14:06.231Z,34.68
2023-05-21T16:16:34.365Z,34.79
2023-05-21T16:19:02.719Z,35.45
2023-05-21T16:21:32.006Z,35.51
2023-05-21T16:24:00.278Z,35.87
2023-05-21T16:26:28.864Z,35.86
2023-05-21T16:28:58.817Z,35.97
2023-05-21T16:31:27.572Z,36.06
2023-05-21T16:33:55.968Z,36.25
2023-05-21T16:36:24.080Z,36.29
2023-05-21T16:39:00.971Z,36.19
2023-05-21T16:41:29.225Z,36.40
2023-05-21T16:43:57.249Z,36.32
2023-05-21T16:46:25.316Z,36.37
2023-05-21T16:49:13.389Z,36.17
2023-05-21T16:51:41.553Z,36.17
2023-05-21T16:54:09.568Z,36.53
2023-05-21T16:56:37.700Z,36.32
2023-05-21T16:59:05.777Z,36.49
2023-05-21T17:01:33.902Z,36.64
2023-05-21T17:04:16.778Z,36.50
2023-05-21T17:06:44.758Z,36.80
2023-05-21T17:10:12.939Z,36.79
2023-05-21T17:14:02.120Z,36.99
2023-05-21T17:17:13.054Z,36.73
2023-05-21T17:19:43.240Z,36.96
2023-05-21T17:22:14.389Z,37.08
2023-05-21T17:24:42.868Z,37.28
2023-05-21T17:27:11.268Z,37.23
2023-05-21T17:29:39.688Z,37.32
2023-05-21T17:32:10.297Z,37.54
2023-05-21T17:34:38.926Z,37.42
2023-05-21T17:37:07.087Z,37.68
2023-05-21T17:39:35.235Z,37.54
2023-05-21T17:42:03.492Z,37.48
2023-05-21T17:44:32.174Z,37.63
2023-05-21T17:47:00.437Z,37.51
2023-05-21T17:50:29.337Z,37.80
2023-05-21T17:53:41.236Z,38.24
2023-05-21T17:56:11.393Z,38.24
2023-05-21T17:58:39.544Z,38.19
2023-05-21T18:01:08.126Z,38.24
2023-05-21T18:03:36.269Z,38.19
2023-05-21T18:06:04.982Z,38.22
2023-05-21T18:08:32.903Z,38.41
2023-05-21T18:11:01.707Z,38.68
2023-05-21T18:13:30.107Z,38.13
2023-05-21T18:15:59.035Z,38.54
2023-05-21T18:18:27.132Z,38.76
2023-05-21T18:20:55.446Z,38.67
2023-05-21T18:23:23.544Z,38.78
2023-05-21T18:25:51.522Z,38.77
2023-05-21T18:28:20.235Z,38.93
2023-05-21T18:30:48.471Z,39.51
2023-05-21T18:33:16.999Z,39.24
2023-05-21T18:35:45.269Z,39.42
2023-05-21T18:38:13.460Z,39.59
2023-05-21T18:40:41.692Z,39.35
2023-05-21T18:43:11.005Z,39.67
2023-05-21T18:45:39.109Z,39.50
2023-05-21T18:48:07.348Z,39.98
2023-05-21T18:50:37.253Z,39.72
2023-05-21T18:53:06.051Z,40.18
2023-05-21T18:55:34.801Z,40.19
2023-05-21T18:58:03.213Z,40.36
2023-05-21T19:00:31.990Z,40.37
2023-05-21T19:03:00.598Z,40.68
2023-05-21T19:05:29.842Z,40.64
2023-05-21T19:07:59.389Z,40.71
2023-05-21T19:10:28.147Z,40.87
2023-05-21T19:12:57.366Z,41.06
2023-05-21T19:15:25.393Z,41.11
2023-05-21T19:17:53.420Z,41.19
2023-05-21T19:23:06.838Z,41.76
2023-05-21T19:25:35.845Z,42.00
2023-05-21T19:28:04.033Z,42.23
2023-05-21T19:30:35.043Z,42.42
2023-05-21T19:33:04.181Z,42.61
2023-05-21T19:35:33.373Z,42.99
2023-05-21T19:38:04.110Z,43.18
2023-05-21T19:40:33.698Z,43.59
2023-05-21T19:43:02.937Z,43.71
2023-05-21T19:45:31.090Z,44.03
2023-05-21T19:48:00.024Z,43.97
2023-05-21T19:50:28.935Z,44.09
2023-05-21T19:52:57.398Z,44.13
2023-05-21T19:55:25.545Z,44.29
2023-05-21T19:57:53.634Z,44.29
2023-05-21T20:00:22.457Z,44.46
2023-05-21T20:02:50.639Z,44.58
2023-05-21T20:05:20.318Z,44.49
2023-05-21T20:07:48.411Z,44.95
2023-05-21T20:10:16.601Z,44.98
2023-05-21T20:12:44.730Z,44.87
2023-05-21T20:15:14.536Z,45.17
2023-05-21T20:17:44.249Z,45.15
2023-05-21T20:20:12.966Z,45.24
2023-05-21T20:23:03.466Z,45.31
2023-05-21T20:25:32.042Z,44.86
2023-05-21T20:28:04.064Z,44.87
2023-05-21T20:30:33.480Z,44.74
2023-05-21T20:33:03.077Z,44.74
2023-05-21T20:35:31.269Z,44.60
2023-05-21T20:38:02.700Z,44.49
2023-05-21T20:40:30.801Z,44.27
2023-05-21T20:43:01.768Z,44.28
2023-05-21T20:45:29.987Z,44.16
2023-05-21T20:47:58.037Z,44.06
2023-05-21T20:50:28.761Z,43.89
2023-05-21T20:52:58.279Z,44.06
2023-05-21T20:55:26.563Z,43.75
2023-05-21T20:57:54.659Z,43.88
2023-05-21T21:00:22.966Z,43.64
2023-05-21T21:03:11.753Z,43.72
2023-05-21T21:05:40.003Z,43.84
2023-05-21T21:08:08.345Z,43.72
2023-05-21T21:10:36.919Z,43.65
2023-05-21T21:13:07.028Z,43.71
2023-05-21T21:15:35.568Z,43.84
2023-05-21T21:18:03.996Z,43.79
2023-05-21T21:20:32.208Z,43.69
2023-05-21T21:23:00.221Z,43.94
2023-05-21T21:25:28.462Z,43.94
2023-05-21T21:27:56.436Z,43.95
2023-05-21T21:30:24.425Z,44.07
2023-05-21T21:32:53.314Z,44.23
2023-05-21T21:35:43.585Z,44.21
2023-05-21T21:38:11.586Z,44.22
2023-05-21T21:40:39.833Z,44.34
2023-05-21T21:43:08.215Z,44.31
2023-05-21T21:45:36.484Z,44.27
2023-05-21T21:48:04.676Z,44.31
2023-05-21T21:50:32.744Z,44.39
2023-05-21T21:53:01.267Z,44.40
2023-05-21T21:55:51.102Z,44.37
2023-05-21T21:58:19.300Z,44.34
2023-05-21T22:00:47.479Z,44.37
2023-05-21T22:03:16.583Z,44.44
2023-05-21T22:05:45.066Z,44.50
2023-05-21T22:08:13.117Z,44.37
2023-05-21T22:10:41.754Z,44.41
2023-05-21T22:13:09.934Z,44.44
2023-05-21T22:16:38.507Z,44.35
2023-05-21T22:19:06.666Z,44.24
2023-05-21T22:21:34.757Z,44.24
2023-05-21T22:24:02.822Z,44.21
2023-05-21T22:26:51.049Z,44.20
2023-05-21T22:29:19.056Z,44.15
2023-05-21T22:31:47.150Z,44.16
2023-05-21T22:34:15.249Z,44.15
2023-05-21T22:37:03.279Z,44.17
2023-05-21T22:39:31.353Z,44.21
2023-05-21T22:41:59.642Z,44.21
2023-05-21T22:44:27.968Z,44.34
2023-05-21T22:47:49.302Z,44.26
2023-05-21T22:50:18.520Z,44.31
2023-05-21T22:52:46.836Z,44.39
2023-05-21T22:55:16.580Z,44.30
2023-05-21T22:58:24.645Z,44.31
2023-05-21T23:00:52.602Z,44.30
2023-05-21T23:03:20.749Z,44.44
2023-05-21T23:06:29.526Z,44.56
2023-05-21T23:08:57.804Z,44.62
2023-05-21T23:11:26.704Z,44.52
2023-05-21T23:13:54.711Z,44.58
2023-05-21T23:16:24.184Z,44.67
2023-05-21T23:18:52.525Z,44.52
2023-05-21T23:21:22.037Z,44.62
2023-05-21T23:23:50.136Z,44.70
2023-05-21T23:27:03.607Z,44.70
2023-05-21T23:29:31.533Z,44.69
2023-05-21T23:32:01.288Z,44.79
2023-05-21T23:34:29.368Z,44.84
2023-05-21T23:37:57.850Z,44.85
2023-05-21T23:40:26.251Z,44.70
2023-05-21T23:42:54.324Z,44.85
2023-05-21T23:45:22.496Z,44.77
2023-05-21T23:48:51.298Z,44.86
2023-05-21T23:51:40.458Z,44.84
2023-05-21T23:54:08.617Z,44.91
2023-05-21T23:56:36.564Z,45.01
2023-05-21T23:59:04.526Z,44.94
